createdAt,value
2018-03-04T00:01:30.985Z,21.20
2018-03-04T00:03:59.301Z,21.67
2018-03-04T00:06:26.662Z,21.20
2018-03-04T00:08:54.049Z,21.93
2018-03-04T00:11:21.455Z,21.10
2018-03-04T00:13:49.675Z,21.87
2018-03-04T00:16:17.031Z,21.80
2018-03-04T00:18:44.416Z,22.30
2018-03-04T00:21:11.826Z,21.33
2018-03-04T00:23:39.188Z,23.67
2018-03-04T00:26:06.542Z,23.70
2018-03-04T00:28:33.953Z,22.63
2018-03-04T00:31:01.354Z,22.60
2018-03-04T00:33:28.706Z,23.20
2018-03-04T00:35:56.238Z,22.30
2018-03-04T00:38:23.656Z,21.27
2018-03-04T00:40:51.049Z,22.20
2018-03-04T00:43:18.452Z,23.17
2018-03-04T00:45:45.849Z,21.63
2018-03-04T00:48:13.233Z,24.43
2018-03-04T00:50:40.593Z,22.47
2018-03-04T00:53:08.009Z,21.93
2018-03-04T00:55:35.413Z,22.40
2018-03-04T00:58:02.826Z,23.20
2018-03-04T01:00:30.205Z,23.20
2018-03-04T01:02:57.591Z,23.30
2018-03-04T01:05:24.966Z,22.50
2018-03-04T01:07:52.393Z,23.80
2018-03-04T01:10:19.757Z,23.77
2018-03-04T01:12:47.118Z,23.37
2018-03-04T01:15:14.538Z,25.70
2018-03-04T01:17:41.960Z,23.17
2018-03-04T01:20:09.336Z,23.27
2018-03-04T01:22:36.766Z,23.10
2018-03-04T01:25:04.154Z,23.50
2018-03-04T01:27:32.523Z,22.63
2018-03-04T01:29:59.941Z,24.20
2018-03-04T01:32:27.300Z,24.57
2018-03-04T01:34:54.674Z,24.07
2018-03-04T01:37:22.154Z,23.43
2018-03-04T01:39:49.558Z,24.67
2018-03-04T01:42:16.958Z,25.20
2018-03-04T01:44:44.312Z,25.93
2018-03-04T01:47:11.700Z,24.07
2018-03-04T01:49:39.097Z,24.83
2018-03-04T01:52:06.453Z,23.87
2018-03-04T01:54:33.860Z,24.97
2018-03-04T01:57:01.226Z,23.87
2018-03-04T01:59:28.643Z,23.57
2018-03-04T02:01:56.045Z,23.40
2018-03-04T02:04:23.444Z,23.40
2018-03-04T02:06:50.813Z,26.07
2018-03-04T02:09:19.210Z,24.80
2018-03-04T02:11:46.617Z,23.10
2018-03-04T02:14:13.990Z,25.30
2018-03-04T02:16:41.388Z,23.50
2018-03-04T02:19:08.777Z,23.30
2018-03-04T02:21:36.178Z,25.43
2018-03-04T02:24:03.606Z,24.17
2018-03-04T02:26:30.985Z,24.47
2018-03-04T02:28:58.402Z,25.70
2018-03-04T02:31:25.811Z,24.57
2018-03-04T02:33:53.225Z,24.27
2018-03-04T02:36:20.592Z,24.83
2018-03-04T02:38:48.004Z,24.47
2018-03-04T02:41:15.366Z,22.33
2018-03-04T02:43:42.877Z,25.67
2018-03-04T02:46:10.269Z,25.20
2018-03-04T02:48:37.625Z,24.17
2018-03-04T02:51:05.016Z,26.03
2018-03-04T02:53:32.393Z,24.90
2018-03-04T02:55:59.807Z,25.57
2018-03-04T02:58:27.170Z,24.67
2018-03-04T03:00:54.560Z,23.83
2018-03-04T03:03:22.029Z,25.00
2018-03-04T03:05:49.385Z,24.37
2018-03-04T03:08:16.754Z,27.27
2018-03-04T03:10:44.164Z,26.73
2018-03-04T03:13:11.521Z,24.67
2018-03-04T03:15:38.985Z,25.87
2018-03-04T03:18:06.351Z,25.73
2018-03-04T03:20:33.742Z,24.63
2018-03-04T03:23:01.162Z,26.00
2018-03-04T03:25:28.529Z,24.70
2018-03-04T03:27:55.921Z,25.63
2018-03-04T03:30:23.335Z,26.47
2018-03-04T03:32:50.753Z,25.10
2018-03-04T03:35:18.149Z,26.53
2018-03-04T03:37:45.553Z,26.40
2018-03-04T03:40:12.949Z,25.17
2018-03-04T03:42:40.361Z,26.67
2018-03-04T03:45:07.714Z,27.30
2018-03-04T03:47:35.133Z,25.97
2018-03-04T03:50:02.517Z,28.17
2018-03-04T03:52:29.878Z,25.53
2018-03-04T03:54:57.265Z,26.47
2018-03-04T03:57:24.670Z,25.40
2018-03-04T03:59:52.033Z,27.23
2018-03-04T04:02:19.442Z,26.30
2018-03-04T04:04:46.841Z,26.70
2018-03-04T04:07:14.249Z,26.30
2018-03-04T04:09:41.631Z,25.47
2018-03-04T04:12:09.036Z,26.57
2018-03-04T04:14:36.394Z,25.00
2018-03-04T04:17:03.771Z,26.70
2018-03-04T04:19:31.157Z,26.57
2018-03-04T04:21:58.552Z,27.57
2018-03-04T04:24:25.936Z,25.70
2018-03-04T04:26:53.300Z,26.27
2018-03-04T04:29:20.706Z,28.57
2018-03-04T04:31:48.091Z,26.20
2018-03-04T04:34:15.477Z,27.07
2018-03-04T04:36:42.841Z,27.30
2018-03-04T04:39:10.226Z,27.03
2018-03-04T04:41:37.584Z,25.47
2018-03-04T04:44:04.981Z,27.70
2018-03-04T04:46:32.376Z,27.53
2018-03-04T04:48:59.730Z,25.60
2018-03-04T04:51:27.094Z,28.17
2018-03-04T04:53:54.514Z,25.77
2018-03-04T04:56:21.873Z,27.47
2018-03-04T04:58:49.224Z,25.17
2018-03-04T05:01:16.634Z,28.37
2018-03-04T05:03:43.992Z,26.57
2018-03-04T05:06:11.457Z,26.90
2018-03-04T05:08:38.833Z,27.13
2018-03-04T05:11:07.132Z,27.80
2018-03-04T05:13:34.521Z,28.53
2018-03-04T05:16:01.898Z,28.07
2018-03-04T05:18:29.296Z,26.33
2018-03-04T05:20:56.666Z,27.20
2018-03-04T05:23:24.063Z,27.73
2018-03-04T05:25:51.483Z,26.53
2018-03-04T05:28:18.846Z,28.17
2018-03-04T05:30:46.206Z,27.10
2018-03-04T05:33:13.617Z,27.07
2018-03-04T05:35:40.985Z,25.47
2018-03-04T05:38:08.345Z,27.03
2018-03-04T05:40:35.764Z,26.30
2018-03-04T05:43:03.129Z,27.93
2018-03-04T05:45:30.510Z,29.53
2018-03-04T05:47:57.908Z,25.77
2018-03-04T05:50:25.274Z,27.87
2018-03-04T05:52:52.744Z,28.07
2018-03-04T05:55:20.333Z,28.20
2018-03-04T05:57:47.706Z,27.60
2018-03-04T06:00:15.097Z,27.17
2018-03-04T06:02:42.506Z,29.07
2018-03-04T06:05:09.882Z,29.10
2018-03-04T06:07:37.260Z,28.20
2018-03-04T06:10:04.667Z,26.53
2018-03-04T06:12:32.025Z,26.03
2018-03-04T06:14:59.382Z,26.90
2018-03-04T06:17:26.797Z,25.47
2018-03-04T06:19:54.248Z,26.50
2018-03-04T06:22:21.622Z,26.60
2018-03-04T06:24:49.027Z,26.97
2018-03-04T06:27:16.399Z,27.17
2018-03-04T06:29:43.791Z,30.20
2018-03-04T06:32:11.193Z,26.57
2018-03-04T06:34:38.600Z,24.63
2018-03-04T06:37:05.972Z,27.77
2018-03-04T06:39:33.430Z,27.77
2018-03-04T06:42:00.794Z,28.17
2018-03-04T06:44:28.166Z,26.13
2018-03-04T06:46:55.561Z,28.57
2018-03-04T06:49:22.922Z,27.77
2018-03-04T06:51:50.332Z,27.10
2018-03-04T06:54:17.722Z,27.43
2018-03-04T06:56:45.225Z,27.07
2018-03-04T06:59:12.613Z,28.67
2018-03-04T07:01:39.981Z,26.20
2018-03-04T07:04:07.576Z,27.60
2018-03-04T07:06:34.942Z,27.57
2018-03-04T07:09:02.797Z,29.47
2018-03-04T07:11:30.196Z,28.30
2018-03-04T07:13:57.586Z,27.83
2018-03-04T07:16:24.974Z,26.90
2018-03-04T07:18:52.381Z,28.07
2018-03-04T07:21:20.690Z,27.20
2018-03-04T07:23:48.220Z,26.83
2018-03-04T07:26:15.590Z,27.20
2018-03-04T07:28:42.984Z,26.30
2018-03-04T07:31:10.390Z,28.53
2018-03-04T07:33:37.762Z,27.10
2018-03-04T07:36:05.130Z,29.20
2018-03-04T07:38:32.533Z,26.53
2018-03-04T07:40:59.889Z,27.20
2018-03-04T07:43:27.322Z,27.07
2018-03-04T07:45:54.682Z,28.20
2018-03-04T07:48:22.041Z,26.70
2018-03-04T07:50:49.436Z,27.17
2018-03-04T07:53:16.820Z,27.37
2018-03-04T07:55:44.180Z,27.30
2018-03-04T07:58:11.576Z,28.33
2018-03-04T08:00:38.969Z,27.70
2018-03-04T08:03:06.362Z,26.30
2018-03-04T08:05:33.744Z,28.07
2018-03-04T08:08:01.276Z,28.70
2018-03-04T08:10:28.632Z,27.70
2018-03-04T08:12:55.986Z,27.83
2018-03-04T08:15:23.373Z,26.90
2018-03-04T08:17:50.741Z,28.23
2018-03-04T08:20:18.094Z,29.10
2018-03-04T08:22:45.798Z,28.50
2018-03-04T08:25:19.097Z,27.57
2018-03-04T08:27:53.430Z,27.47
2018-03-04T08:30:20.790Z,28.13
2018-03-04T08:32:48.177Z,28.17
2018-03-04T08:35:15.543Z,29.53
2018-03-04T08:37:42.913Z,28.27
2018-03-04T08:40:10.397Z,28.67
2018-03-04T08:42:37.785Z,27.97
2018-03-04T08:45:05.221Z,27.90
2018-03-04T08:47:32.600Z,28.93
2018-03-04T08:50:00.927Z,29.30
2018-03-04T08:52:28.317Z,27.50
2018-03-04T08:54:55.689Z,29.67
2018-03-04T08:57:23.093Z,29.73
2018-03-04T08:59:50.457Z,28.13
2018-03-04T09:02:17.840Z,30.43
2018-03-04T09:04:45.268Z,27.43
2018-03-04T09:07:12.627Z,30.13
2018-03-04T09:09:40.097Z,28.53
2018-03-04T09:12:07.509Z,30.50
2018-03-04T09:14:34.926Z,29.67
2018-03-04T09:17:02.287Z,31.90
2018-03-04T09:19:29.650Z,30.37
2018-03-04T09:21:57.041Z,29.70
2018-03-04T09:24:24.396Z,29.17
2018-03-04T09:26:51.805Z,28.90
2018-03-04T09:29:19.174Z,29.27
2018-03-04T09:31:46.648Z,28.13
2018-03-04T09:34:13.993Z,28.47
2018-03-04T09:36:41.440Z,31.03
2018-03-04T09:39:08.797Z,28.37
2018-03-04T09:41:36.179Z,31.90
2018-03-04T09:44:03.581Z,30.03
2018-03-04T09:46:30.942Z,29.47
2018-03-04T09:48:58.343Z,31.13
2018-03-04T09:51:25.751Z,30.03
2018-03-04T09:53:53.191Z,30.80
2018-03-04T09:56:20.706Z,30.40
2018-03-04T09:58:48.060Z,28.23
2018-03-04T10:01:15.482Z,30.20
2018-03-04T10:03:42.843Z,31.60
2018-03-04T10:06:10.201Z,30.50
2018-03-04T10:08:37.607Z,29.20
2018-03-04T10:11:04.965Z,30.07
2018-03-04T10:13:32.362Z,30.07
2018-03-04T10:15:59.714Z,30.13
2018-03-04T10:18:27.101Z,32.63
2018-03-04T10:20:54.483Z,30.73
2018-03-04T10:23:21.881Z,31.80
2018-03-04T10:25:49.298Z,32.97
2018-03-04T10:28:16.664Z,32.83
2018-03-04T10:30:44.060Z,31.93
2018-03-04T10:33:11.422Z,30.67
2018-03-04T10:35:38.775Z,31.60
2018-03-04T10:38:06.177Z,34.30
2018-03-04T10:40:33.533Z,31.10
2018-03-04T10:43:00.936Z,33.37
2018-03-04T10:45:28.293Z,32.83
2018-03-04T10:47:55.653Z,31.47
2018-03-04T10:50:23.061Z,32.83
2018-03-04T10:52:50.418Z,33.83
2018-03-04T10:55:17.805Z,32.00
2018-03-04T10:57:45.186Z,30.53
2018-03-04T11:00:12.577Z,33.43
2018-03-04T11:02:41.923Z,32.07
2018-03-04T11:05:09.313Z,32.40
2018-03-04T11:07:36.758Z,31.60
2018-03-04T11:10:04.146Z,33.20
2018-03-04T11:12:31.541Z,32.73
2018-03-04T11:14:58.909Z,30.40
2018-03-04T11:17:26.320Z,31.80
2018-03-04T11:19:53.687Z,31.07
2018-03-04T11:22:21.055Z,31.73
2018-03-04T11:24:48.485Z,31.83
2018-03-04T11:27:15.877Z,33.83
2018-03-04T11:29:43.289Z,34.00
2018-03-04T11:32:10.748Z,34.20
2018-03-04T11:34:38.097Z,32.90
2018-03-04T11:37:05.472Z,32.93
2018-03-04T11:39:32.862Z,34.30
2018-03-04T11:42:00.217Z,34.53
2018-03-04T11:44:27.623Z,34.80
2018-03-04T11:46:54.977Z,35.40
2018-03-04T11:49:22.457Z,36.50
2018-03-04T11:51:50.384Z,34.00
2018-03-04T11:54:17.790Z,35.40
2018-03-04T11:56:45.210Z,34.53
2018-03-04T11:59:13.153Z,34.37
2018-03-04T12:01:40.515Z,34.80
2018-03-04T12:04:09.373Z,34.60
2018-03-04T12:06:36.760Z,35.80
2018-03-04T12:09:05.058Z,37.50
2018-03-04T12:11:32.455Z,36.30
2018-03-04T12:14:00.585Z,33.93
2018-03-04T12:16:27.957Z,35.80
2018-03-04T12:18:55.430Z,37.83
2018-03-04T12:21:22.797Z,36.50
2018-03-04T12:23:50.165Z,36.43
2018-03-04T12:26:17.582Z,37.47
2018-03-04T12:28:45.077Z,37.67
2018-03-04T12:31:12.448Z,36.93
2018-03-04T12:33:39.881Z,39.90
2018-03-04T12:36:07.247Z,37.27
2018-03-04T12:38:34.803Z,35.50
2018-03-04T12:41:02.222Z,39.00
2018-03-04T12:43:29.590Z,36.33
2018-03-04T12:45:57.027Z,37.77
2018-03-04T12:48:24.397Z,36.57
2018-03-04T12:50:51.751Z,37.20
2018-03-04T12:53:19.279Z,36.37
2018-03-04T12:55:46.665Z,37.37
2018-03-04T12:58:14.035Z,37.10
2018-03-04T13:00:41.431Z,38.43
2018-03-04T13:03:09.865Z,36.73
2018-03-04T13:05:37.310Z,38.67
2018-03-04T13:08:04.858Z,38.27
2018-03-04T13:10:32.276Z,38.90
2018-03-04T13:13:00.779Z,38.47
2018-03-04T13:17:55.487Z,37.57
2018-03-04T13:20:23.048Z,39.57
2018-03-04T13:22:50.607Z,47.50
2018-03-04T13:25:18.575Z,39.67
2018-03-04T13:27:45.998Z,39.07
2018-03-04T13:30:13.434Z,39.77
2018-03-04T13:32:40.887Z,39.50
2018-03-04T13:35:08.444Z,39.20
2018-03-04T13:37:35.877Z,39.20
2018-03-04T13:40:03.524Z,40.20
2018-03-04T13:42:30.933Z,38.30
2018-03-04T13:44:58.336Z,38.30
2018-03-04T13:47:25.793Z,38.87
2018-03-04T13:49:53.194Z,39.23
2018-03-04T13:52:20.593Z,38.00
2018-03-04T13:54:47.965Z,36.40
2018-03-04T13:57:15.359Z,38.37
2018-03-04T13:59:42.976Z,39.07
2018-03-04T14:02:11.378Z,37.90
2018-03-04T14:04:38.809Z,38.20
2018-03-04T14:07:06.268Z,39.00
2018-03-04T14:09:33.687Z,41.10
2018-03-04T14:12:02.134Z,37.50
2018-03-04T14:14:29.509Z,38.50
2018-03-04T14:16:56.901Z,39.77
2018-03-04T14:19:24.325Z,40.23
2018-03-04T14:21:51.730Z,40.80
2018-03-04T14:24:19.135Z,40.30
2018-03-04T14:26:46.511Z,39.30
2018-03-04T14:29:13.873Z,40.40
2018-03-04T14:31:41.291Z,40.50
2018-03-04T14:34:08.649Z,40.17
2018-03-04T14:36:36.082Z,40.90
2018-03-04T14:39:04.203Z,39.57
2018-03-04T14:41:31.593Z,40.23
2018-03-04T14:43:58.949Z,41.20
2018-03-04T14:46:26.367Z,40.10
2018-03-04T14:48:53.738Z,38.57
2018-03-04T14:51:21.126Z,39.00
2018-03-04T14:53:48.525Z,41.07
2018-03-04T14:56:15.919Z,40.37
2018-03-04T14:58:43.285Z,39.73
2018-03-04T15:01:10.682Z,40.77
2018-03-04T15:03:38.068Z,39.03
2018-03-04T15:06:05.465Z,39.97
2018-03-04T15:08:32.854Z,43.33
2018-03-04T15:11:00.212Z,41.10
2018-03-04T15:13:27.609Z,42.70
2018-03-04T15:15:54.970Z,40.27
2018-03-04T15:18:22.360Z,41.67
2018-03-04T15:20:49.745Z,41.13
2018-03-04T15:23:17.153Z,40.07
2018-03-04T15:25:44.554Z,40.17
2018-03-04T15:28:11.931Z,40.37
2018-03-04T15:30:39.294Z,41.47
2018-03-04T15:33:06.698Z,41.10
2018-03-04T15:35:34.064Z,40.87
2018-03-04T15:38:01.474Z,40.90
2018-03-04T15:40:28.890Z,41.73
2018-03-04T15:42:56.253Z,40.37
2018-03-04T15:45:23.626Z,39.33
2018-03-04T15:47:51.034Z,39.97
2018-03-04T15:50:18.389Z,40.27
2018-03-04T15:52:45.777Z,38.93
2018-03-04T15:55:13.225Z,38.80
2018-03-04T15:57:41.571Z,39.63
2018-03-04T16:00:08.947Z,40.63
2018-03-04T16:02:36.315Z,39.27
2018-03-04T16:05:04.642Z,39.60
2018-03-04T16:07:32.017Z,38.30
2018-03-04T16:09:59.472Z,37.83
2018-03-04T16:12:26.842Z,38.10
2018-03-04T16:14:54.238Z,37.23
2018-03-04T16:17:21.597Z,37.03
2018-03-04T16:19:48.953Z,35.90
2018-03-04T16:22:16.371Z,36.63
2018-03-04T16:24:43.767Z,35.80
2018-03-04T16:27:11.128Z,36.07
2018-03-04T16:29:38.537Z,34.70
2018-03-04T16:32:05.907Z,36.77
2018-03-04T16:34:33.341Z,35.50
2018-03-04T16:37:00.847Z,33.50
2018-03-04T16:39:28.250Z,34.77
2018-03-04T16:41:55.755Z,33.23
2018-03-04T16:44:23.198Z,32.00
2018-03-04T16:46:50.772Z,33.47
2018-03-04T16:49:18.146Z,32.73
2018-03-04T16:51:46.407Z,32.23
2018-03-04T16:54:13.985Z,31.67
2018-03-04T16:56:41.346Z,30.73
2018-03-04T16:59:08.703Z,31.27
2018-03-04T17:01:36.537Z,30.10
2018-03-04T17:04:03.961Z,31.37
2018-03-04T17:06:31.492Z,28.57
2018-03-04T17:08:58.940Z,28.77
2018-03-04T17:11:26.377Z,30.37
2018-03-04T17:13:53.761Z,31.57
2018-03-04T17:16:21.322Z,29.20
2018-03-04T17:18:48.908Z,28.97
2018-03-04T17:21:16.398Z,30.23
2018-03-04T17:23:43.855Z,27.67
2018-03-04T17:26:11.518Z,27.37
2018-03-04T17:28:39.296Z,26.70
2018-03-04T17:31:06.785Z,26.37
2018-03-04T17:33:47.000Z,25.77
2018-03-04T17:36:14.453Z,27.30
2018-03-04T17:38:42.012Z,27.40
2018-03-04T17:41:09.469Z,26.73
2018-03-04T17:43:37.030Z,27.50
2018-03-04T17:46:05.009Z,26.50
2018-03-04T17:48:32.968Z,27.27
2018-03-04T17:51:00.709Z,27.03
2018-03-04T17:53:28.068Z,26.90
2018-03-04T17:55:55.646Z,26.10
2018-03-04T17:58:23.088Z,27.20
2018-03-04T18:00:50.471Z,28.13
2018-03-04T18:03:17.875Z,27.07
2018-03-04T18:05:45.233Z,29.40
2018-03-04T18:08:12.627Z,28.73
2018-03-04T18:10:40.041Z,28.97
2018-03-04T18:13:07.469Z,28.00
2018-03-04T18:15:34.919Z,28.80
2018-03-04T18:18:02.294Z,28.73
2018-03-04T18:20:29.712Z,28.00
2018-03-04T18:22:57.129Z,28.57
2018-03-04T18:25:24.522Z,29.80
2018-03-04T18:27:52.003Z,28.03
2018-03-04T18:30:19.448Z,30.17
2018-03-04T18:32:47.279Z,29.00
2018-03-04T18:35:14.686Z,28.50
2018-03-04T18:37:42.211Z,28.07
2018-03-04T18:40:09.646Z,29.10
2018-03-04T18:42:37.227Z,29.03
2018-03-04T18:45:04.605Z,29.80
2018-03-04T18:47:32.040Z,31.80
2018-03-04T18:49:59.702Z,29.53
2018-03-04T18:52:27.364Z,28.50
2018-03-04T18:54:55.228Z,28.90
2018-03-04T18:57:23.096Z,29.67
2018-03-04T18:59:50.658Z,30.30
2018-03-04T19:02:18.087Z,30.80
2018-03-04T19:04:45.549Z,29.30
2018-03-04T19:07:12.961Z,31.50
2018-03-04T19:09:40.399Z,29.73
2018-03-04T19:12:07.791Z,31.20
2018-03-04T19:14:35.172Z,30.33
2018-03-04T19:17:02.577Z,32.30
2018-03-04T19:19:29.958Z,32.50
2018-03-04T19:21:57.463Z,32.10
2018-03-04T19:24:25.061Z,33.30
2018-03-04T19:26:52.423Z,33.20
2018-03-04T19:29:19.872Z,32.70
2018-03-04T19:31:47.236Z,32.60
2018-03-04T19:34:14.747Z,35.93
2018-03-04T19:36:42.146Z,32.50
2018-03-04T19:39:10.071Z,34.90
2018-03-04T19:41:37.491Z,33.90
2018-03-04T19:44:14.021Z,35.30
2018-03-04T19:46:44.322Z,35.47
2018-03-04T19:49:11.833Z,34.20
2018-03-04T19:51:39.543Z,34.10
2018-03-04T19:54:07.260Z,35.10
2018-03-04T19:56:34.937Z,34.50
2018-03-04T19:59:02.369Z,33.43
2018-03-04T20:01:30.087Z,33.23
2018-03-04T20:03:57.602Z,35.20
2018-03-04T20:06:25.289Z,36.17
2018-03-04T20:08:52.970Z,35.50
2018-03-04T20:11:20.735Z,34.63
2018-03-04T20:13:48.232Z,35.33
2018-03-04T20:16:15.647Z,35.17
2018-03-04T20:18:43.311Z,35.73
2018-03-04T20:21:10.731Z,34.07
2018-03-04T20:23:38.263Z,34.00
2018-03-04T20:26:05.678Z,36.10
2018-03-04T20:28:33.065Z,35.20
2018-03-04T20:31:00.490Z,35.27
2018-03-04T20:33:28.156Z,31.43
2018-03-04T20:35:55.614Z,34.77
2018-03-04T20:38:23.021Z,33.23
2018-03-04T20:40:50.425Z,34.73
2018-03-04T20:43:17.853Z,34.70
2018-03-04T20:45:45.340Z,34.57
2018-03-04T20:48:12.765Z,36.17
2018-03-04T20:50:40.206Z,36.07
2018-03-04T20:53:07.578Z,34.17
2018-03-04T20:55:35.013Z,35.93
2018-03-04T20:58:02.403Z,33.40
2018-03-04T21:00:29.880Z,34.93
2018-03-04T21:02:57.306Z,35.73
2018-03-04T21:05:24.694Z,35.07
2018-03-04T21:07:52.113Z,32.57
2018-03-04T21:10:19.519Z,33.87
2018-03-04T21:15:30.734Z,33.93
2018-03-04T21:17:58.112Z,35.23
2018-03-04T21:20:25.477Z,34.10
2018-03-04T21:22:53.069Z,34.57
2018-03-04T21:25:20.489Z,35.43
2018-03-04T21:27:47.859Z,34.67
2018-03-04T21:30:15.251Z,34.90
2018-03-04T21:32:42.690Z,34.17
2018-03-04T21:35:10.098Z,33.63
2018-03-04T21:37:37.460Z,34.33
2018-03-04T21:40:04.893Z,33.30
2018-03-04T21:42:32.252Z,33.37
2018-03-04T21:44:59.645Z,35.53
2018-03-04T21:47:27.066Z,32.67
2018-03-04T21:49:54.425Z,33.73
2018-03-04T21:52:21.834Z,34.20
2018-03-04T21:54:49.309Z,34.80
2018-03-04T21:57:16.712Z,33.97
2018-03-04T21:59:44.076Z,32.47
2018-03-04T22:02:11.459Z,33.60
2018-03-04T22:04:40.348Z,34.10
2018-03-04T22:07:07.758Z,33.60
2018-03-04T22:09:35.129Z,32.80
2018-03-04T22:12:02.571Z,34.50
2018-03-04T22:14:29.968Z,34.03
2018-03-04T22:16:57.343Z,33.70
2018-03-04T22:19:24.748Z,34.50
2018-03-04T22:21:52.111Z,33.47
2018-03-04T22:24:19.498Z,33.77
2018-03-04T22:26:46.891Z,33.90
2018-03-04T22:29:14.267Z,35.20
2018-03-04T22:31:41.676Z,33.80
2018-03-04T22:34:09.114Z,32.20
2018-03-04T22:36:36.530Z,34.43
2018-03-04T22:39:04.289Z,32.67
2018-03-04T22:41:31.711Z,32.57
2018-03-04T22:43:59.109Z,34.03
2018-03-04T22:46:26.510Z,33.70
2018-03-04T22:48:53.933Z,33.20
2018-03-04T22:51:21.316Z,31.40
2018-03-04T22:53:48.729Z,32.87
2018-03-04T22:56:16.133Z,34.63
2018-03-04T22:58:43.505Z,34.30
2018-03-04T23:01:10.911Z,33.30
2018-03-04T23:03:38.341Z,30.70
2018-03-04T23:06:05.738Z,31.77
2018-03-04T23:08:33.149Z,32.80
2018-03-04T23:11:00.562Z,32.73
2018-03-04T23:13:27.976Z,32.77
2018-03-04T23:15:55.350Z,32.73
2018-03-04T23:18:22.768Z,31.43
2018-03-04T23:20:50.134Z,33.70
2018-03-04T23:23:17.586Z,34.97
2018-03-04T23:25:45.002Z,32.40
2018-03-04T23:28:12.413Z,32.50
2018-03-04T23:30:39.793Z,32.57
2018-03-04T23:33:07.215Z,31.37
2018-03-04T23:35:34.597Z,32.33
2018-03-04T23:38:02.021Z,31.30
2018-03-04T23:40:29.412Z,32.53
2018-03-04T23:42:56.773Z,32.10
2018-03-04T23:45:24.129Z,31.47
2018-03-04T23:47:51.530Z,31.53
2018-03-04T23:50:18.895Z,33.00
2018-03-04T23:52:46.290Z,31.53
2018-03-04T23:55:13.650Z,31.80
2018-03-04T23:57:41.050Z,31.50
